createdAt,value
2023-05-23T00:02:22.953Z,61.14
2023-05-23T00:04:52.436Z,61.31
2023-05-23T00:07:20.366Z,61.19
2023-05-23T00:09:48.263Z,61.23
2023-05-23T00:12:16.225Z,61.03
2023-05-23T00:14:46.102Z,61.12
2023-05-23T00:17:14.153Z,61.26
2023-05-23T00:19:45.736Z,61.24
2023-05-23T00:22:15.772Z,61.52
2023-05-23T00:24:44.175Z,61.36
2023-05-23T00:27:12.322Z,61.66
2023-05-23T00:29:40.587Z,61.43
2023-05-23T00:32:08.524Z,61.56
2023-05-23T00:34:37.836Z,61.56
2023-05-23T00:37:05.818Z,61.50
2023-05-23T00:39:34.333Z,61.80
2023-05-23T00:42:05.538Z,61.52
2023-05-23T00:44:33.473Z,61.68
2023-05-23T00:47:01.642Z,61.63
2023-05-23T00:49:30.425Z,61.75
2023-05-23T00:51:58.556Z,61.77
2023-05-23T00:54:33.818Z,61.88
2023-05-23T00:57:01.960Z,61.84
2023-05-23T01:05:03.304Z,61.97
2023-05-23T01:07:31.218Z,62.10
2023-05-23T01:09:59.295Z,61.96
2023-05-23T01:12:27.215Z,62.21
2023-05-23T01:15:08.809Z,62.13
2023-05-23T01:17:47.426Z,62.21
2023-05-23T01:20:31.302Z,62.12
2023-05-23T01:23:02.144Z,62.34
2023-05-23T01:25:50.193Z,62.33
2023-05-23T01:28:21.526Z,62.33
2023-05-23T01:30:52.285Z,62.46
2023-05-23T01:33:22.712Z,62.73
2023-05-23T01:35:51.677Z,62.79
2023-05-23T01:38:19.684Z,62.86
2023-05-23T01:40:47.758Z,62.95
2023-05-23T01:43:15.947Z,63.24
2023-05-23T01:45:44.224Z,63.11
2023-05-23T01:48:15.945Z,63.37
2023-05-23T01:50:47.392Z,63.49
2023-05-23T01:53:21.311Z,63.32
2023-05-23T01:55:49.621Z,63.56
2023-05-23T01:58:18.045Z,63.48
2023-05-23T02:00:47.259Z,63.59
2023-05-23T02:03:16.605Z,63.98
2023-05-23T02:05:44.758Z,63.82
2023-05-23T02:08:12.796Z,63.93
2023-05-23T02:10:40.783Z,63.82
2023-05-23T02:13:08.805Z,63.89
2023-05-23T02:15:36.756Z,64.07
2023-05-23T02:18:06.649Z,64.05
2023-05-23T02:20:35.320Z,64.10
2023-05-23T02:23:05.915Z,64.33
2023-05-23T02:25:34.040Z,64.28
2023-05-23T02:28:02.020Z,64.11
2023-05-23T02:30:29.927Z,64.27
2023-05-23T02:32:58.525Z,64.35
2023-05-23T02:35:26.628Z,64.35
2023-05-23T02:37:54.714Z,64.47
2023-05-23T02:40:22.761Z,64.55
2023-05-23T02:42:51.723Z,64.47
2023-05-23T02:45:19.758Z,64.69
2023-05-23T02:47:48.039Z,64.57
2023-05-23T02:50:16.376Z,64.62
2023-05-23T02:52:44.418Z,64.90
2023-05-23T02:55:13.273Z,64.68
2023-05-23T02:57:44.310Z,64.85
2023-05-23T03:00:13.507Z,65.11
2023-05-23T03:02:42.290Z,65.17
2023-05-23T03:05:10.386Z,65.19
2023-05-23T03:07:38.440Z,65.41
2023-05-23T03:10:07.785Z,65.42
2023-05-23T03:12:36.128Z,65.36
2023-05-23T03:15:04.521Z,65.52
2023-05-23T03:17:32.557Z,65.65
2023-05-23T03:20:00.589Z,65.60
2023-05-23T03:22:28.846Z,65.69
2023-05-23T03:24:56.836Z,65.84
2023-05-23T03:27:24.705Z,65.80
2023-05-23T03:29:52.859Z,65.73
2023-05-23T03:32:20.951Z,65.93
2023-05-23T03:34:48.922Z,65.68
2023-05-23T03:37:17.248Z,65.73
2023-05-23T03:39:45.646Z,65.66
2023-05-23T03:42:13.708Z,66.02
2023-05-23T03:44:41.732Z,66.17
2023-05-23T03:47:09.798Z,66.07
2023-05-23T03:49:40.129Z,66.25
2023-05-23T03:52:08.154Z,66.13
2023-05-23T03:54:36.671Z,66.46
2023-05-23T03:57:04.767Z,66.38
2023-05-23T03:59:32.825Z,66.33
2023-05-23T04:02:01.579Z,66.44
2023-05-23T04:04:30.391Z,66.40
2023-05-23T04:06:59.323Z,66.32
2023-05-23T04:09:27.341Z,66.34
2023-05-23T04:11:56.023Z,66.41
2023-05-23T04:14:27.684Z,66.55
2023-05-23T04:16:56.425Z,66.61
2023-05-23T04:19:24.473Z,66.47
2023-05-23T04:21:53.548Z,66.67
2023-05-23T04:24:21.894Z,66.70
2023-05-23T04:26:50.014Z,66.70
2023-05-23T04:29:17.945Z,66.82
2023-05-23T04:31:46.384Z,66.71
2023-05-23T04:34:15.000Z,66.77
2023-05-23T04:36:45.116Z,66.72
2023-05-23T04:39:14.254Z,66.87
2023-05-23T04:41:56.938Z,66.54
2023-05-23T04:44:50.091Z,66.55
2023-05-23T04:47:25.198Z,66.45
2023-05-23T04:50:05.596Z,66.38
2023-05-23T04:52:34.296Z,66.41
2023-05-23T04:55:03.037Z,66.35
2023-05-23T04:57:31.210Z,66.02
2023-05-23T04:59:59.281Z,65.59
2023-05-23T05:02:29.077Z,65.47
2023-05-23T05:04:58.092Z,65.49
2023-05-23T05:07:26.261Z,64.98
2023-05-23T05:09:54.187Z,64.75
2023-05-23T05:12:22.317Z,64.72
2023-05-23T05:14:50.250Z,63.93
2023-05-23T05:17:19.518Z,63.60
2023-05-23T05:20:10.992Z,63.77
2023-05-23T05:22:40.568Z,63.46
2023-05-23T05:25:11.143Z,63.23
2023-05-23T05:27:40.182Z,62.91
2023-05-23T05:30:11.925Z,62.22
2023-05-23T05:32:53.600Z,62.44
2023-05-23T05:35:22.127Z,62.02
2023-05-23T05:37:50.292Z,61.67
2023-05-23T05:40:18.338Z,61.26
2023-05-23T05:42:46.294Z,61.03
2023-05-23T05:45:14.352Z,60.52
2023-05-23T05:47:45.621Z,60.32
2023-05-23T05:50:14.018Z,59.62
2023-05-23T05:52:42.432Z,59.33
2023-05-23T05:55:11.583Z,59.14
2023-05-23T05:57:41.111Z,58.51
2023-05-23T06:00:15.327Z,58.46
2023-05-23T06:02:57.822Z,58.25
2023-05-23T06:05:39.873Z,58.17
2023-05-23T06:08:08.497Z,57.37
2023-05-23T06:10:38.716Z,56.69
2023-05-23T06:13:06.912Z,56.58
2023-05-23T06:15:35.496Z,55.20
2023-05-23T06:18:03.581Z,55.80
2023-05-23T06:20:32.566Z,54.49
2023-05-23T06:23:05.516Z,54.34
2023-05-23T06:25:33.581Z,54.32
2023-05-23T06:28:01.660Z,54.59
2023-05-23T06:30:31.724Z,54.10
2023-05-23T06:32:59.889Z,54.21
2023-05-23T06:35:28.264Z,53.33
2023-05-23T06:37:56.490Z,53.37
2023-05-23T06:40:24.612Z,53.15
2023-05-23T06:42:52.746Z,52.70
2023-05-23T06:45:39.098Z,52.73
2023-05-23T06:48:08.107Z,52.41
2023-05-23T06:50:37.402Z,51.96
2023-05-23T06:53:06.492Z,52.00
2023-05-23T06:55:35.128Z,51.50
2023-05-23T06:58:05.865Z,51.67
2023-05-23T07:00:34.425Z,50.90
2023-05-23T07:03:17.204Z,49.36
2023-05-23T07:05:45.346Z,50.40
2023-05-23T07:08:13.636Z,50.53
2023-05-23T07:10:46.421Z,49.90
2023-05-23T07:13:24.479Z,50.13
2023-05-23T07:15:54.119Z,49.39
2023-05-23T07:18:23.643Z,48.66
2023-05-23T07:20:52.171Z,48.88
2023-05-23T07:23:24.435Z,48.60
2023-05-23T07:26:01.694Z,48.35
2023-05-23T07:28:35.371Z,48.52
2023-05-23T07:31:03.414Z,47.47
2023-05-23T07:33:34.548Z,47.58
2023-05-23T07:36:04.089Z,47.49
2023-05-23T07:38:32.109Z,47.13
2023-05-23T07:41:10.878Z,46.93
2023-05-23T07:43:41.068Z,47.23
2023-05-23T07:46:10.114Z,46.78
2023-05-23T07:48:38.830Z,46.72
2023-05-23T07:51:07.222Z,45.80
2023-05-23T07:53:39.968Z,45.47
2023-05-23T07:56:10.067Z,45.42
2023-05-23T07:58:39.819Z,45.28
2023-05-23T08:01:08.870Z,45.14
2023-05-23T08:04:04.223Z,45.35
2023-05-23T08:06:52.157Z,45.29
2023-05-23T08:09:36.414Z,45.56
2023-05-23T08:12:06.486Z,44.99
2023-05-23T08:14:49.951Z,45.33
2023-05-23T08:17:42.903Z,45.35
2023-05-23T08:20:12.237Z,44.82
2023-05-23T08:22:40.956Z,44.58
2023-05-23T08:25:10.115Z,44.24
2023-05-23T08:27:39.399Z,44.59
2023-05-23T08:30:23.530Z,44.63
2023-05-23T08:32:53.293Z,44.71
2023-05-23T08:35:22.432Z,44.72
2023-05-23T08:37:50.935Z,44.81
2023-05-23T08:40:21.562Z,44.35
2023-05-23T08:42:57.988Z,44.74
2023-05-23T08:45:32.337Z,45.09
2023-05-23T08:48:02.119Z,45.16
2023-05-23T08:50:31.390Z,44.91
2023-05-23T08:52:59.902Z,44.53
2023-05-23T08:55:30.351Z,43.97
2023-05-23T08:58:00.742Z,44.15
2023-05-23T09:00:38.763Z,44.63
2023-05-23T09:03:07.404Z,44.43
2023-05-23T09:06:13.851Z,43.98
2023-05-23T09:08:46.021Z,44.09
2023-05-23T09:11:15.248Z,44.32
2023-05-23T09:14:22.681Z,44.67
2023-05-23T09:16:50.368Z,44.81
2023-05-23T09:19:19.061Z,45.04
2023-05-23T09:21:54.043Z,45.01
2023-05-23T09:24:34.045Z,44.96
2023-05-23T09:27:01.307Z,44.58
2023-05-23T09:29:28.201Z,44.80
2023-05-23T09:32:00.647Z,44.14
2023-05-23T09:34:29.407Z,44.30
2023-05-23T09:36:56.444Z,44.55
2023-05-23T09:39:23.195Z,44.35
2023-05-23T09:41:50.110Z,44.67
2023-05-23T09:44:22.797Z,44.74
2023-05-23T09:46:53.930Z,44.47
2023-05-23T09:49:21.792Z,44.52
2023-05-23T09:51:59.661Z,44.76
2023-05-23T09:54:26.679Z,44.11
2023-05-23T09:56:56.293Z,44.37
2023-05-23T09:59:26.213Z,43.60
2023-05-23T10:01:56.399Z,43.95
2023-05-23T10:04:25.427Z,43.43
2023-05-23T10:07:21.775Z,42.80
2023-05-23T10:09:55.289Z,42.94
2023-05-23T10:12:32.050Z,43.02
2023-05-23T10:15:03.533Z,43.31
2023-05-23T10:17:55.296Z,43.46
2023-05-23T10:20:26.869Z,44.19
2023-05-23T10:22:54.436Z,43.54
2023-05-23T10:25:21.199Z,44.15
2023-05-23T10:27:50.848Z,43.75
2023-05-23T10:30:18.744Z,43.81
2023-05-23T10:32:46.212Z,43.80
2023-05-23T10:35:44.488Z,44.21
2023-05-23T10:38:23.432Z,44.07
2023-05-23T10:41:01.397Z,43.42
2023-05-23T10:43:39.704Z,43.81
2023-05-23T10:46:08.379Z,43.22
2023-05-23T10:48:43.899Z,43.08
2023-05-23T10:51:11.427Z,43.37
2023-05-23T10:53:43.209Z,43.11
2023-05-23T10:56:22.377Z,43.42
2023-05-23T10:58:54.599Z,43.08
2023-05-23T11:01:21.923Z,42.58
2023-05-23T11:03:54.052Z,42.60
2023-05-23T11:06:44.114Z,43.09
2023-05-23T11:09:18.703Z,43.33
2023-05-23T11:12:02.875Z,43.11
2023-05-23T11:14:37.352Z,43.26
2023-05-23T11:17:12.928Z,43.57
2023-05-23T11:19:55.254Z,43.76
2023-05-23T11:22:26.887Z,43.57
2023-05-23T11:24:55.459Z,43.98
2023-05-23T11:27:37.155Z,44.19
2023-05-23T11:30:10.234Z,43.34
2023-05-23T11:32:37.528Z,43.53
2023-05-23T11:35:07.077Z,43.30
2023-05-23T11:37:34.284Z,43.39
2023-05-23T11:40:26.643Z,43.57
2023-05-23T11:42:54.654Z,42.96
2023-05-23T11:45:26.368Z,43.26
2023-05-23T11:47:53.235Z,43.39
2023-05-23T11:50:20.089Z,43.51
2023-05-23T11:52:50.990Z,43.60
2023-05-23T11:55:21.732Z,43.18
2023-05-23T11:57:49.500Z,43.16
2023-05-23T12:00:17.341Z,43.88
2023-05-23T12:02:45.467Z,43.81
2023-05-23T12:05:13.924Z,43.75
2023-05-23T12:07:47.569Z,43.67
2023-05-23T12:10:16.248Z,43.32
2023-05-23T12:12:43.957Z,43.03
2023-05-23T12:15:11.847Z,43.10
2023-05-23T12:17:43.405Z,43.46
2023-05-23T12:20:11.905Z,43.22
2023-05-23T12:22:38.537Z,43.18
2023-05-23T12:25:10.132Z,42.81
2023-05-23T12:27:39.472Z,42.90
2023-05-23T12:30:11.634Z,42.44
2023-05-23T12:32:45.993Z,42.46
2023-05-23T12:35:14.273Z,42.65
2023-05-23T12:37:45.220Z,42.52
2023-05-23T12:40:17.028Z,42.10
2023-05-23T12:42:53.197Z,41.82
2023-05-23T12:45:37.800Z,41.34
2023-05-23T12:48:08.115Z,41.51
2023-05-23T12:50:35.627Z,41.30
2023-05-23T12:53:02.396Z,41.28
2023-05-23T12:55:29.106Z,41.37
2023-05-23T12:57:56.061Z,41.59
2023-05-23T13:00:22.686Z,41.01
2023-05-23T13:02:49.856Z,41.39
2023-05-23T13:05:16.645Z,41.63
2023-05-23T13:07:43.686Z,41.61
2023-05-23T13:10:10.515Z,41.38
2023-05-23T13:12:38.024Z,41.23
2023-05-23T13:15:05.861Z,41.33
2023-05-23T13:17:32.582Z,41.58
2023-05-23T13:19:59.167Z,41.88
2023-05-23T13:22:25.856Z,42.22
2023-05-23T13:24:52.514Z,42.57
2023-05-23T13:27:19.184Z,42.63
2023-05-23T13:29:46.453Z,42.46
2023-05-23T13:32:13.065Z,42.72
2023-05-23T13:34:39.930Z,42.92
2023-05-23T13:37:06.637Z,43.07
2023-05-23T13:39:33.782Z,43.05
2023-05-23T13:42:00.508Z,43.20
2023-05-23T13:44:28.273Z,43.37
2023-05-23T13:46:55.173Z,43.60
2023-05-23T13:49:22.096Z,43.54
2023-05-23T13:51:50.382Z,43.41
2023-05-23T13:54:17.025Z,43.35
2023-05-23T13:56:43.701Z,43.31
2023-05-23T13:59:10.368Z,43.45
2023-05-23T14:01:37.164Z,43.86
2023-05-23T14:04:06.085Z,43.65
2023-05-23T14:06:33.694Z,43.78
2023-05-23T14:09:00.752Z,43.79
2023-05-23T14:11:27.838Z,43.85
2023-05-23T14:13:54.798Z,43.50
2023-05-23T14:16:24.799Z,43.23
2023-05-23T14:18:51.580Z,43.26
2023-05-23T14:21:18.154Z,43.35
2023-05-23T14:23:44.972Z,43.41
2023-05-23T14:26:11.810Z,43.63
2023-05-23T14:28:38.637Z,43.84
2023-05-23T14:31:05.801Z,43.79
2023-05-23T14:33:35.264Z,43.93
2023-05-23T14:36:02.154Z,44.10
2023-05-23T14:38:28.860Z,44.30
2023-05-23T14:40:55.617Z,44.05
2023-05-23T14:43:22.350Z,43.91
2023-05-23T14:45:49.148Z,43.96
2023-05-23T14:48:15.808Z,43.97
2023-05-23T14:51:13.184Z,43.90
2023-05-23T14:53:43.690Z,44.19
2023-05-23T14:56:10.325Z,43.94
2023-05-23T14:58:39.505Z,44.02
2023-05-23T15:01:06.697Z,43.96
2023-05-23T15:03:33.344Z,43.67
2023-05-23T15:06:00.710Z,43.74
2023-05-23T15:08:28.863Z,44.02
2023-05-23T15:10:55.646Z,44.07
2023-05-23T15:13:22.848Z,44.35
2023-05-23T15:15:49.623Z,45.16
2023-05-23T15:18:27.973Z,45.81
2023-05-23T15:21:02.672Z,46.27
2023-05-23T15:23:29.493Z,47.22
2023-05-23T15:25:56.451Z,47.70
2023-05-23T15:28:23.195Z,48.00
2023-05-23T15:30:49.929Z,48.41
2023-05-23T15:33:16.791Z,48.79
2023-05-23T15:35:43.911Z,49.25
2023-05-23T15:38:13.411Z,49.76
2023-05-23T15:40:41.035Z,50.12
2023-05-23T15:43:07.915Z,50.39
2023-05-23T15:45:34.629Z,50.84
2023-05-23T15:48:01.768Z,51.29
2023-05-23T15:50:28.543Z,51.27
2023-05-23T15:52:55.213Z,51.55
2023-05-23T15:55:21.737Z,51.78
2023-05-23T15:57:48.385Z,52.03
2023-05-23T16:00:15.818Z,52.34
2023-05-23T16:02:42.580Z,52.46
2023-05-23T16:05:09.470Z,52.79
2023-05-23T16:07:36.178Z,53.11
2023-05-23T16:10:03.943Z,53.42
2023-05-23T16:12:30.548Z,53.49
2023-05-23T16:14:57.608Z,53.60
2023-05-23T16:17:25.480Z,53.92
2023-05-23T16:19:52.039Z,54.08
2023-05-23T16:22:18.965Z,54.74
2023-05-23T16:24:45.773Z,54.91
2023-05-23T16:27:12.564Z,55.02
2023-05-23T16:29:39.784Z,55.32
2023-05-23T16:32:07.068Z,55.61
2023-05-23T16:34:34.632Z,55.77
2023-05-23T16:37:01.278Z,56.07
2023-05-23T16:39:28.192Z,56.36
2023-05-23T16:41:54.901Z,56.60
2023-05-23T16:44:22.358Z,56.78
2023-05-23T16:46:49.242Z,56.97
2023-05-23T16:49:16.132Z,57.17
2023-05-23T16:51:43.107Z,57.32
2023-05-23T16:54:11.434Z,57.51
2023-05-23T16:56:38.571Z,57.70
2023-05-23T16:59:05.750Z,57.75
2023-05-23T17:01:32.794Z,57.96
2023-05-23T17:03:59.894Z,58.17
2023-05-23T17:06:26.708Z,58.32
2023-05-23T17:08:53.781Z,58.44
2023-05-23T17:11:21.120Z,58.49
2023-05-23T17:13:48.285Z,58.69
2023-05-23T17:16:20.259Z,58.84
2023-05-23T17:18:47.735Z,59.02
2023-05-23T17:21:14.704Z,59.25
2023-05-23T17:23:42.535Z,59.49
2023-05-23T17:26:10.215Z,59.68
2023-05-23T17:28:37.345Z,59.98
2023-05-23T17:31:04.630Z,60.52
2023-05-23T17:33:31.601Z,60.67
2023-05-23T17:35:58.476Z,60.61
2023-05-23T17:38:25.683Z,60.79
2023-05-23T17:40:52.480Z,61.27
2023-05-23T17:43:19.395Z,61.46
2023-05-23T17:45:46.846Z,61.59
2023-05-23T17:48:16.667Z,62.04
2023-05-23T17:50:44.411Z,62.35
2023-05-23T17:53:12.956Z,62.60
2023-05-23T17:55:40.639Z,62.69
2023-05-23T17:58:07.699Z,62.92
2023-05-23T18:00:35.432Z,63.21
2023-05-23T18:03:03.599Z,63.57
2023-05-23T18:05:30.301Z,63.83
2023-05-23T18:07:57.432Z,65.01
2023-05-23T18:10:24.839Z,64.81
2023-05-23T18:12:51.818Z,64.65
2023-05-23T18:15:18.753Z,64.94
2023-05-23T18:17:46.254Z,64.96
2023-05-23T18:20:13.205Z,64.91
2023-05-23T18:22:40.641Z,65.24
2023-05-23T18:25:09.119Z,65.53
2023-05-23T18:27:36.438Z,65.71
2023-05-23T18:30:03.974Z,66.84
2023-05-23T18:32:31.321Z,67.70
2023-05-23T18:34:58.239Z,67.03
2023-05-23T18:37:25.823Z,67.19
2023-05-23T18:39:57.304Z,67.45
2023-05-23T18:42:24.227Z,67.57
2023-05-23T18:44:51.282Z,67.76
2023-05-23T18:47:18.263Z,68.12
2023-05-23T18:49:45.708Z,68.29
2023-05-23T18:52:12.896Z,68.68
2023-05-23T18:54:40.959Z,68.62
2023-05-23T18:57:10.428Z,68.82
2023-05-23T18:59:37.326Z,69.06
2023-05-23T19:02:06.429Z,69.36
2023-05-23T19:04:34.213Z,69.58
2023-05-23T19:07:01.235Z,70.12
2023-05-23T19:09:28.451Z,70.02
2023-05-23T19:11:55.476Z,70.57
2023-05-23T19:14:22.988Z,70.70
2023-05-23T19:16:51.107Z,71.27
2023-05-23T19:19:20.405Z,71.24
2023-05-23T19:21:47.349Z,71.53
2023-05-23T19:24:14.224Z,71.65
2023-05-23T19:27:01.652Z,71.76
2023-05-23T19:29:29.406Z,71.96
2023-05-23T19:31:57.547Z,71.94
2023-05-23T19:34:24.636Z,72.32
2023-05-23T19:36:52.409Z,72.52
2023-05-23T19:39:20.903Z,72.86
2023-05-23T19:41:47.907Z,72.83
2023-05-23T19:44:14.780Z,72.76
2023-05-23T19:46:42.464Z,72.85
2023-05-23T19:49:11.590Z,73.04
2023-05-23T19:51:39.178Z,72.98
2023-05-23T19:54:05.874Z,72.91
2023-05-23T19:56:33.685Z,72.97
2023-05-23T19:59:03.299Z,73.14
2023-05-23T20:01:33.070Z,73.36
2023-05-23T20:04:00.438Z,73.38
2023-05-23T20:06:27.427Z,73.40
2023-05-23T20:08:54.370Z,73.24
2023-05-23T20:11:21.854Z,73.54
2023-05-23T20:13:49.053Z,73.58
2023-05-23T20:16:16.854Z,73.59
2023-05-23T20:18:43.878Z,73.57
2023-05-23T20:21:11.131Z,73.69
2023-05-23T20:23:38.039Z,73.89
2023-05-23T20:26:04.904Z,74.07
2023-05-23T20:28:32.188Z,74.23
2023-05-23T20:30:59.054Z,74.29
2023-05-23T20:33:25.778Z,74.49
2023-05-23T20:35:55.878Z,74.81
2023-05-23T20:38:24.101Z,75.15
2023-05-23T20:40:52.418Z,75.18
2023-05-23T20:43:26.140Z,75.43
2023-05-23T20:45:58.280Z,75.65
2023-05-23T20:48:30.995Z,75.86
2023-05-23T20:51:08.114Z,75.87
2023-05-23T20:53:35.105Z,76.42
2023-05-23T20:56:03.171Z,76.52
2023-05-23T20:58:31.770Z,76.87
2023-05-23T21:00:59.749Z,77.05
2023-05-23T21:03:27.709Z,77.14
2023-05-23T21:05:57.912Z,77.20
2023-05-23T21:08:24.633Z,77.45
2023-05-23T21:10:54.166Z,77.52
2023-05-23T21:13:21.421Z,77.84
2023-05-23T21:15:48.098Z,78.02
2023-05-23T21:18:14.750Z,78.31
2023-05-23T21:20:41.726Z,78.17
2023-05-23T21:23:08.544Z,78.20
2023-05-23T21:25:35.391Z,78.40
2023-05-23T21:28:02.038Z,78.62
2023-05-23T21:30:28.721Z,78.76
2023-05-23T21:32:55.456Z,78.98
2023-05-23T21:35:27.635Z,78.88
2023-05-23T21:37:54.216Z,79.15
2023-05-23T21:40:20.855Z,79.76
2023-05-23T21:42:47.440Z,79.72
2023-05-23T21:45:14.107Z,79.86
2023-05-23T21:47:40.713Z,80.15
2023-05-23T21:50:07.843Z,80.52
2023-05-23T21:52:34.389Z,80.61
2023-05-23T21:55:00.938Z,80.70
2023-05-23T21:57:28.148Z,81.54
2023-05-23T21:59:55.020Z,81.59
2023-05-23T22:02:21.632Z,81.89
2023-05-23T22:04:48.268Z,81.73
2023-05-23T22:07:14.854Z,82.15
2023-05-23T22:09:41.508Z,82.65
2023-05-23T22:12:08.340Z,82.48
2023-05-23T22:14:35.087Z,82.61
2023-05-23T22:17:03.058Z,82.55
2023-05-23T22:19:30.496Z,83.11
2023-05-23T22:21:57.234Z,83.45
2023-05-23T22:24:24.581Z,83.71
2023-05-23T22:26:51.168Z,84.57
2023-05-23T22:29:17.838Z,84.44
2023-05-23T22:31:46.084Z,84.16
2023-05-23T22:34:12.716Z,84.47
2023-05-23T22:36:39.337Z,84.73
2023-05-23T22:39:06.055Z,84.83
2023-05-23T22:41:33.975Z,85.25
2023-05-23T22:44:00.882Z,85.13
2023-05-23T22:46:27.553Z,85.55
2023-05-23T22:48:54.569Z,85.50
2023-05-23T22:51:21.635Z,85.84
2023-05-23T22:53:48.454Z,86.01
2023-05-23T22:56:15.257Z,86.13
2023-05-23T22:58:42.360Z,86.43
2023-05-23T23:01:19.302Z,86.77
2023-05-23T23:03:47.681Z,86.79
2023-05-23T23:06:14.256Z,87.27
2023-05-23T23:08:40.951Z,87.43
2023-05-23T23:11:07.476Z,87.49
2023-05-23T23:13:34.042Z,87.36
2023-05-23T23:17:26.477Z,87.56
2023-05-23T23:19:54.925Z,87.42
2023-05-23T23:22:22.862Z,87.77
2023-05-23T23:24:51.107Z,87.82
2023-05-23T23:27:26.486Z,88.12
2023-05-23T23:29:54.380Z,88.23
2023-05-23T23:32:22.376Z,88.31
2023-05-23T23:34:50.413Z,88.20
2023-05-23T23:37:18.483Z,88.35
2023-05-23T23:39:46.496Z,88.30
2023-05-23T23:42:14.537Z,88.47
2023-05-23T23:44:42.814Z,88.78
2023-05-23T23:47:10.998Z,89.34
2023-05-23T23:49:39.212Z,89.11
2023-05-23T23:52:07.253Z,88.81
2023-05-23T23:54:35.377Z,88.97
2023-05-23T23:57:03.545Z,89.18
2023-05-23T23:59:31.442Z,89.09
